createdAt,value
2022-08-03T00:01:36.596Z,58.83
2022-08-03T00:04:39.006Z,59.16
2022-08-03T00:07:41.215Z,59.43
2022-08-03T00:10:43.670Z,59.62
2022-08-03T00:13:45.788Z,59.27
2022-08-03T00:16:48.190Z,59.60
2022-08-03T00:19:50.309Z,59.38
2022-08-03T00:22:52.798Z,59.28
2022-08-03T00:25:54.927Z,59.66
2022-08-03T00:28:57.351Z,59.06
2022-08-03T00:32:00.583Z,59.57
2022-08-03T00:35:08.355Z,60.13
2022-08-03T00:38:11.983Z,60.21
2022-08-03T00:41:15.743Z,60.67
2022-08-03T00:44:17.967Z,61.13
2022-08-03T00:47:20.343Z,61.58
2022-08-03T00:50:24.274Z,61.50
2022-08-03T00:53:27.703Z,61.71
2022-08-03T00:56:29.863Z,62.49
2022-08-03T00:59:32.610Z,62.47
2022-08-03T01:02:34.821Z,62.69
2022-08-03T01:05:52.243Z,63.22
2022-08-03T01:09:19.403Z,64.46
2022-08-03T01:12:42.327Z,64.18
2022-08-03T01:15:49.408Z,64.95
2022-08-03T01:19:00.159Z,64.40
2022-08-03T01:22:05.077Z,64.32
2022-08-03T01:25:36.455Z,64.52
2022-08-03T01:28:57.478Z,65.03
2022-08-03T01:32:58.715Z,65.24
2022-08-03T01:35:45.154Z,65.96
2022-08-03T01:38:53.744Z,66.51
2022-08-03T01:42:06.104Z,66.40
2022-08-03T01:45:12.710Z,66.54
2022-08-03T01:48:18.631Z,66.97
2022-08-03T01:51:22.338Z,68.36
2022-08-03T01:54:25.995Z,67.49
2022-08-03T01:57:29.686Z,67.68
2022-08-03T02:00:33.064Z,68.48
2022-08-03T02:03:58.064Z,68.17
2022-08-03T02:07:03.428Z,68.21
2022-08-03T02:10:07.450Z,68.50
2022-08-03T02:13:10.565Z,68.79
2022-08-03T02:16:14.328Z,68.87
2022-08-03T02:19:18.129Z,68.62
2022-08-03T02:22:22.531Z,68.84
2022-08-03T02:25:24.790Z,68.88
2022-08-03T02:28:33.098Z,68.92
2022-08-03T02:31:37.834Z,68.44
2022-08-03T02:34:45.129Z,68.27
2022-08-03T02:37:52.221Z,68.56
2022-08-03T02:40:57.404Z,68.90
2022-08-03T02:44:07.111Z,69.77
2022-08-03T02:47:12.427Z,69.35
2022-08-03T02:50:16.770Z,70.06
2022-08-03T02:53:21.322Z,70.46
2022-08-03T02:56:27.354Z,70.13
2022-08-03T02:59:31.392Z,69.85
2022-08-03T03:02:34.940Z,70.21
2022-08-03T03:05:54.490Z,70.21
2022-08-03T03:09:00.383Z,70.42
2022-08-03T03:12:03.229Z,70.50
2022-08-03T03:15:06.620Z,71.03
2022-08-03T03:18:10.091Z,71.15
2022-08-03T03:21:14.307Z,71.43
2022-08-03T03:24:17.072Z,71.77
2022-08-03T03:27:19.412Z,71.56
2022-08-03T03:30:23.723Z,71.75
2022-08-03T03:33:28.408Z,71.83
2022-08-03T03:36:31.137Z,72.28
2022-08-03T03:39:33.513Z,72.49
2022-08-03T03:42:36.172Z,72.20
2022-08-03T03:45:40.582Z,72.63
2022-08-03T03:48:44.090Z,73.11
2022-08-03T03:51:46.238Z,73.00
2022-08-03T03:54:48.661Z,73.19
2022-08-03T03:57:50.983Z,73.01
2022-08-03T04:00:53.932Z,73.07
2022-08-03T04:03:56.573Z,73.31
2022-08-03T04:07:17.302Z,73.93
2022-08-03T04:10:41.648Z,73.59
2022-08-03T04:13:51.640Z,73.68
2022-08-03T04:17:01.804Z,74.08
2022-08-03T04:20:05.483Z,74.18
2022-08-03T04:23:13.721Z,74.10
2022-08-03T04:26:21.516Z,74.37
2022-08-03T04:29:26.036Z,74.58
2022-08-03T04:32:29.710Z,74.76
2022-08-03T04:35:59.782Z,74.83
2022-08-03T04:39:08.374Z,74.91
2022-08-03T04:42:13.968Z,74.98
2022-08-03T04:45:18.425Z,74.91
2022-08-03T04:48:21.224Z,74.56
2022-08-03T04:51:23.665Z,74.93
2022-08-03T04:54:26.079Z,74.59
2022-08-03T04:57:28.236Z,74.67
2022-08-03T05:00:30.656Z,74.91
2022-08-03T05:03:32.864Z,74.94
2022-08-03T05:06:35.439Z,75.18
2022-08-03T05:09:52.185Z,75.09
2022-08-03T05:12:55.353Z,75.29
2022-08-03T05:15:57.677Z,75.00
2022-08-03T05:19:00.064Z,74.94
2022-08-03T05:22:02.243Z,75.12
2022-08-03T05:25:05.127Z,74.99
2022-08-03T05:28:07.334Z,75.58
2022-08-03T05:31:09.779Z,75.28
2022-08-03T05:34:11.895Z,75.07
2022-08-03T05:37:14.330Z,74.81
2022-08-03T05:40:16.750Z,74.77
2022-08-03T05:43:19.234Z,78.67
2022-08-03T05:46:24.866Z,81.40
2022-08-03T05:49:27.424Z,77.31
2022-08-03T05:52:29.604Z,76.17
2022-08-03T05:55:32.298Z,76.49
2022-08-03T05:58:34.427Z,76.77
2022-08-03T06:01:37.036Z,77.01
2022-08-03T06:04:39.613Z,76.31
2022-08-03T06:07:41.865Z,77.18
2022-08-03T06:10:44.290Z,75.69
2022-08-03T06:13:46.484Z,74.41
2022-08-03T06:16:48.848Z,74.48
2022-08-03T06:19:53.546Z,73.58
2022-08-03T06:23:00.223Z,72.20
2022-08-03T06:26:03.430Z,72.00
2022-08-03T06:29:06.006Z,71.76
2022-08-03T06:32:12.075Z,68.95
2022-08-03T06:35:14.552Z,69.62
2022-08-03T06:38:16.774Z,68.96
2022-08-03T06:41:19.164Z,69.90
2022-08-03T06:44:21.310Z,68.20
2022-08-03T06:47:23.698Z,68.34
2022-08-03T06:50:26.291Z,67.46
2022-08-03T06:53:28.816Z,66.63
2022-08-03T06:56:30.975Z,65.87
2022-08-03T07:00:09.093Z,66.09
2022-08-03T07:02:58.318Z,66.89
2022-08-03T07:06:01.202Z,65.84
2022-08-03T07:09:03.509Z,66.15
2022-08-03T07:12:06.670Z,64.55
2022-08-03T07:15:09.177Z,65.16
2022-08-03T07:18:29.250Z,62.49
2022-08-03T07:21:32.261Z,62.14
2022-08-03T07:24:35.004Z,61.52
2022-08-03T07:27:38.242Z,61.16
2022-08-03T07:30:40.843Z,61.78
2022-08-03T07:33:42.964Z,60.12
2022-08-03T07:36:45.513Z,59.95
2022-08-03T07:39:47.828Z,58.38
2022-08-03T07:42:53.400Z,58.27
2022-08-03T07:45:55.780Z,56.63
2022-08-03T07:48:58.275Z,58.24
2022-08-03T07:52:19.339Z,55.34
2022-08-03T07:55:25.050Z,55.51
2022-08-03T07:58:27.160Z,52.89
2022-08-03T08:01:30.295Z,51.43
2022-08-03T08:04:32.879Z,51.80
2022-08-03T08:07:35.028Z,49.11
2022-08-03T08:10:37.621Z,49.57
2022-08-03T08:13:39.753Z,48.44
2022-08-03T08:16:42.524Z,47.34
2022-08-03T08:19:51.457Z,46.65
2022-08-03T08:22:56.912Z,46.06
2022-08-03T08:25:59.377Z,44.02
2022-08-03T08:29:01.734Z,43.97
2022-08-03T08:32:04.237Z,42.49
2022-08-03T08:35:09.821Z,43.22
2022-08-03T08:38:12.128Z,41.89
2022-08-03T08:41:15.651Z,41.10
2022-08-03T08:44:17.774Z,40.93
2022-08-03T08:47:26.039Z,38.30
2022-08-03T08:50:28.498Z,37.32
2022-08-03T08:53:33.206Z,38.14
2022-08-03T08:56:37.101Z,36.96
2022-08-03T08:59:49.051Z,38.05
2022-08-03T09:02:52.530Z,38.31
2022-08-03T09:05:56.419Z,36.27
2022-08-03T09:08:58.710Z,35.71
2022-08-03T09:12:20.872Z,35.17
2022-08-03T09:15:26.632Z,35.67
2022-08-03T09:18:32.591Z,34.49
2022-08-03T09:21:35.308Z,34.02
2022-08-03T09:24:41.558Z,33.18
2022-08-03T09:27:45.945Z,32.87
2022-08-03T09:30:59.755Z,31.92
2022-08-03T09:34:06.885Z,32.63
2022-08-03T09:37:15.991Z,32.70
2022-08-03T09:40:34.533Z,32.83
2022-08-03T09:43:47.061Z,33.32
2022-08-03T09:46:58.579Z,31.82
2022-08-03T09:50:04.163Z,32.71
2022-08-03T09:53:06.316Z,32.51
2022-08-03T09:56:34.285Z,32.89
2022-08-03T09:59:33.466Z,32.24
2022-08-03T10:02:36.979Z,31.33
2022-08-03T10:05:44.517Z,32.05
2022-08-03T10:08:47.173Z,30.73
2022-08-03T10:11:49.721Z,30.57
2022-08-03T10:14:52.629Z,31.61
2022-08-03T10:17:55.019Z,31.63
2022-08-03T10:21:06.295Z,31.29
2022-08-03T10:24:10.688Z,30.62
2022-08-03T10:27:14.866Z,31.12
2022-08-03T10:30:17.634Z,31.09
2022-08-03T10:33:50.277Z,32.65
2022-08-03T10:36:53.644Z,33.25
2022-08-03T10:39:57.997Z,33.17
2022-08-03T10:43:09.919Z,33.09
2022-08-03T10:46:14.215Z,32.95
2022-08-03T10:49:33.547Z,32.89
2022-08-03T10:52:56.707Z,31.73
2022-08-03T10:56:18.179Z,31.40
2022-08-03T10:59:46.493Z,32.33
2022-08-03T11:03:08.949Z,31.79
2022-08-03T11:06:21.791Z,32.02
2022-08-03T11:09:24.249Z,31.42
2022-08-03T11:12:32.734Z,30.88
2022-08-03T11:15:35.994Z,30.00
2022-08-03T11:18:56.214Z,30.43
2022-08-03T11:22:00.214Z,31.02
2022-08-03T11:25:02.598Z,31.52
2022-08-03T11:28:30.700Z,31.35
2022-08-03T11:31:51.884Z,30.71
2022-08-03T11:35:06.754Z,30.40
2022-08-03T11:38:10.558Z,30.89
2022-08-03T11:41:33.006Z,34.16
2022-08-03T11:44:47.486Z,31.06
2022-08-03T11:47:54.492Z,30.79
2022-08-03T11:50:56.898Z,30.19
2022-08-03T11:54:04.639Z,30.39
2022-08-03T11:57:06.926Z,31.01
2022-08-03T12:00:26.210Z,30.72
2022-08-03T12:03:33.034Z,28.59
2022-08-03T12:06:55.072Z,30.51
2022-08-03T12:10:14.295Z,29.48
2022-08-03T12:14:33.107Z,29.77
2022-08-03T12:16:40.043Z,30.42
2022-08-03T12:19:43.873Z,29.27
2022-08-03T12:22:46.303Z,28.99
2022-08-03T12:25:49.544Z,29.69
2022-08-03T12:28:52.247Z,29.36
2022-08-03T12:31:56.144Z,30.11
2022-08-03T12:35:01.252Z,29.94
2022-08-03T12:38:04.247Z,29.23
2022-08-03T12:41:13.525Z,28.70
2022-08-03T12:44:15.702Z,29.02
2022-08-03T12:47:18.258Z,30.52
2022-08-03T12:50:28.003Z,29.58
2022-08-03T12:53:30.428Z,30.36
2022-08-03T12:56:32.784Z,29.93
2022-08-03T12:59:40.710Z,30.00
2022-08-03T13:02:46.474Z,29.52
2022-08-03T13:05:49.128Z,30.42
2022-08-03T13:09:03.667Z,30.69
2022-08-03T13:12:10.513Z,30.32
2022-08-03T13:15:12.660Z,28.88
2022-08-03T13:18:17.329Z,29.64
2022-08-03T13:21:21.230Z,28.07
2022-08-03T13:24:23.868Z,28.78
2022-08-03T13:28:11.118Z,28.22
2022-08-03T13:30:49.726Z,28.53
2022-08-03T13:33:51.884Z,29.28
2022-08-03T13:37:10.444Z,28.78
2022-08-03T13:40:12.647Z,28.78
2022-08-03T13:43:17.182Z,28.74
2022-08-03T13:46:20.298Z,29.45
2022-08-03T13:49:22.927Z,29.08
2022-08-03T13:52:25.160Z,29.75
2022-08-03T13:55:27.662Z,29.20
2022-08-03T13:58:29.798Z,29.40
2022-08-03T14:01:54.185Z,28.48
2022-08-03T14:04:54.855Z,28.06
2022-08-03T14:07:58.293Z,28.63
2022-08-03T14:11:07.491Z,28.74
2022-08-03T14:14:09.690Z,30.17
2022-08-03T14:17:12.118Z,28.39
2022-08-03T14:20:37.359Z,29.05
2022-08-03T14:23:38.440Z,28.37
2022-08-03T14:26:40.551Z,28.95
2022-08-03T14:29:43.040Z,28.76
2022-08-03T14:32:47.288Z,29.38
2022-08-03T14:35:50.556Z,29.35
2022-08-03T14:38:52.740Z,29.09
2022-08-03T14:41:55.232Z,29.07
2022-08-03T14:45:02.430Z,28.87
2022-08-03T14:50:27.908Z,29.14
2022-08-03T14:51:29.883Z,28.88
2022-08-03T14:54:34.257Z,29.20
2022-08-03T14:57:36.445Z,27.60
2022-08-03T15:00:38.904Z,28.21
2022-08-03T15:03:41.158Z,30.15
2022-08-03T15:06:43.592Z,28.31
2022-08-03T15:09:50.698Z,27.74
2022-08-03T15:12:55.124Z,28.89
2022-08-03T15:15:57.890Z,28.58
2022-08-03T15:19:00.868Z,28.34
2022-08-03T15:22:03.157Z,29.27
2022-08-03T15:26:01.712Z,28.99
2022-08-03T15:28:28.344Z,27.89
2022-08-03T15:31:30.757Z,28.71
2022-08-03T15:34:33.059Z,28.81
2022-08-03T15:37:35.571Z,29.06
2022-08-03T15:40:37.998Z,29.16
2022-08-03T15:43:41.525Z,29.10
2022-08-03T15:46:53.075Z,29.12
2022-08-03T15:49:55.582Z,29.44
2022-08-03T15:52:57.732Z,29.60
2022-08-03T15:56:00.849Z,29.17
2022-08-03T15:59:12.303Z,29.78
2022-08-03T16:02:16.457Z,29.70
2022-08-03T16:05:18.844Z,29.33
2022-08-03T16:08:21.145Z,29.58
2022-08-03T16:11:23.626Z,29.68
2022-08-03T16:14:33.357Z,29.95
2022-08-03T16:17:41.106Z,30.10
2022-08-03T16:20:44.760Z,30.14
2022-08-03T16:23:48.155Z,29.82
2022-08-03T16:26:50.270Z,30.04
2022-08-03T16:29:52.826Z,30.12
2022-08-03T16:32:55.077Z,31.02
2022-08-03T16:35:57.462Z,30.80
2022-08-03T16:38:59.617Z,31.21
2022-08-03T16:42:02.313Z,31.14
2022-08-03T16:45:06.386Z,31.20
2022-08-03T16:48:08.815Z,31.36
2022-08-03T16:51:10.926Z,31.51
2022-08-03T16:54:14.065Z,31.72
2022-08-03T16:57:29.740Z,31.44
2022-08-03T17:00:41.236Z,31.42
2022-08-03T17:04:01.793Z,31.62
2022-08-03T17:07:06.946Z,32.50
2022-08-03T17:10:12.603Z,32.31
2022-08-03T17:13:21.755Z,32.14
2022-08-03T17:16:25.278Z,31.89
2022-08-03T17:19:30.730Z,32.73
2022-08-03T17:22:39.263Z,32.51
2022-08-03T17:26:01.994Z,32.20
2022-08-03T17:29:11.223Z,32.28
2022-08-03T17:32:21.169Z,32.54
2022-08-03T17:35:23.986Z,32.69
2022-08-03T17:38:31.846Z,33.18
2022-08-03T17:41:34.055Z,33.55
2022-08-03T17:44:46.030Z,33.78
2022-08-03T17:47:57.801Z,34.53
2022-08-03T17:51:06.646Z,34.45
2022-08-03T17:54:27.143Z,34.77
2022-08-03T17:58:02.310Z,35.12
2022-08-03T18:02:03.319Z,35.58
2022-08-03T18:08:32.265Z,36.02
2022-08-03T18:11:37.085Z,36.18
2022-08-03T18:14:57.331Z,36.53
2022-08-03T18:18:10.926Z,37.06
2022-08-03T18:21:17.054Z,37.20
2022-08-03T18:24:20.690Z,37.64
2022-08-03T18:27:42.660Z,37.54
2022-08-03T18:30:54.776Z,37.94
2022-08-03T18:37:25.104Z,38.49
2022-08-03T18:40:28.451Z,38.72
2022-08-03T18:43:46.744Z,39.15
2022-08-03T18:47:22.012Z,39.18
2022-08-03T18:50:39.147Z,39.91
2022-08-03T18:57:07.372Z,40.27
2022-08-03T19:00:24.268Z,40.87
2022-08-03T19:03:41.274Z,41.49
2022-08-03T19:06:49.028Z,41.85
2022-08-03T19:09:58.285Z,43.06
2022-08-03T19:13:14.108Z,42.60
2022-08-03T19:16:38.730Z,42.93
2022-08-03T19:19:44.883Z,43.44
2022-08-03T19:22:48.249Z,43.45
2022-08-03T19:25:51.191Z,43.62
2022-08-03T19:28:57.051Z,43.69
2022-08-03T19:32:02.000Z,43.77
2022-08-03T19:35:09.431Z,43.91
2022-08-03T19:38:17.411Z,44.05
2022-08-03T19:41:41.947Z,44.27
2022-08-03T19:44:50.464Z,45.24
2022-08-03T19:48:08.026Z,45.15
2022-08-03T19:51:12.696Z,45.78
2022-08-03T19:54:16.079Z,46.11
2022-08-03T19:57:19.850Z,46.16
2022-08-03T20:00:26.537Z,45.31
2022-08-03T20:03:43.010Z,45.38
2022-08-03T20:06:47.019Z,45.78
2022-08-03T20:09:54.505Z,46.33
2022-08-03T20:12:59.539Z,46.32
2022-08-03T20:16:02.014Z,48.48
2022-08-03T20:19:04.269Z,46.91
2022-08-03T20:22:17.721Z,47.17
2022-08-03T20:25:38.905Z,47.79
2022-08-03T20:28:49.825Z,48.29
2022-08-03T20:31:53.917Z,48.02
2022-08-03T20:38:27.210Z,47.17
2022-08-03T20:41:30.734Z,44.21
2022-08-03T20:44:34.166Z,39.89
2022-08-03T20:47:50.226Z,37.44
2022-08-03T20:50:55.344Z,36.90
2022-08-03T20:54:01.693Z,36.72
2022-08-03T20:57:10.059Z,36.09
2022-08-03T21:00:13.895Z,35.07
2022-08-03T21:03:16.792Z,35.03
2022-08-03T21:09:52.189Z,34.23
2022-08-03T21:12:58.400Z,38.04
2022-08-03T21:13:04.167Z,36.34
2022-08-03T21:13:07.169Z,47.48
2022-08-03T21:13:08.461Z,40.51
2022-08-03T21:13:13.764Z,33.89
2022-08-03T21:13:13.804Z,34.26
2022-08-03T21:16:21.648Z,35.21
2022-08-03T21:19:29.612Z,37.63
2022-08-03T21:22:35.486Z,37.79
2022-08-03T21:25:40.432Z,39.07
2022-08-03T21:28:43.042Z,40.40
2022-08-03T21:31:46.657Z,41.63
2022-08-03T21:34:50.930Z,42.57
2022-08-03T21:38:12.975Z,42.51
2022-08-03T21:41:15.122Z,43.44
2022-08-03T21:44:18.421Z,43.08
2022-08-03T21:47:37.129Z,43.32
2022-08-03T21:50:41.461Z,43.29
2022-08-03T21:54:03.560Z,43.87
2022-08-03T21:57:17.379Z,44.40
2022-08-03T22:00:21.635Z,44.81
2022-08-03T22:03:28.098Z,44.93
2022-08-03T22:06:30.780Z,45.85
2022-08-03T22:09:35.209Z,46.16
2022-08-03T22:12:37.825Z,46.47
2022-08-03T22:15:41.012Z,46.47
2022-08-03T22:18:45.179Z,46.79
2022-08-03T22:21:48.820Z,47.40
2022-08-03T22:24:56.447Z,47.83
2022-08-03T22:28:02.139Z,47.96
2022-08-03T22:31:37.670Z,47.46
2022-08-03T22:34:28.409Z,47.58
2022-08-03T22:37:32.198Z,48.44
2022-08-03T22:40:37.198Z,47.78
2022-08-03T22:43:39.709Z,48.45
2022-08-03T22:46:43.295Z,48.75
2022-08-03T22:49:46.369Z,48.74
2022-08-03T22:53:09.630Z,48.94
2022-08-03T22:56:12.438Z,49.11
2022-08-03T22:59:41.100Z,49.45
2022-08-03T23:02:40.390Z,49.35
2022-08-03T23:06:01.087Z,48.93
2022-08-03T23:09:10.817Z,48.85
2022-08-03T23:12:17.093Z,48.99
2022-08-03T23:15:19.573Z,48.14
2022-08-03T23:18:23.360Z,48.56
2022-08-03T23:22:00.561Z,49.09
2022-08-03T23:24:52.133Z,49.39
2022-08-03T23:28:05.173Z,49.50
2022-08-03T23:31:08.946Z,50.43
2022-08-03T23:34:32.480Z,49.58
2022-08-03T23:38:04.760Z,50.31
2022-08-03T23:40:59.634Z,50.40
2022-08-03T23:44:04.388Z,50.62
2022-08-03T23:47:06.554Z,51.17
2022-08-03T23:50:08.976Z,50.03
2022-08-03T23:53:23.214Z,47.79
2022-08-03T23:56:49.679Z,47.42
